createdAt,value
2018-03-28T00:01:47.595Z,999.45
2018-03-28T00:02:47.626Z,999.43
2018-03-28T00:04:40.594Z,999.38
2018-03-28T00:05:40.560Z,999.42
2018-03-28T00:07:33.459Z,999.35
2018-03-28T00:08:33.486Z,999.34
2018-03-28T00:10:26.482Z,999.34
2018-03-28T00:11:26.942Z,999.31
2018-03-28T00:13:19.343Z,999.35
2018-03-28T00:14:19.861Z,999.35
2018-03-28T00:16:12.233Z,999.40
2018-03-28T00:17:12.239Z,999.40
2018-03-28T00:19:06.205Z,999.33
2018-03-28T00:20:05.167Z,999.29
2018-03-28T00:21:58.102Z,999.29
2018-03-28T00:22:58.120Z,999.28
2018-03-28T00:24:50.987Z,999.22
2018-03-28T00:25:51.044Z,999.22
2018-03-28T00:27:43.932Z,999.21
2018-03-28T00:28:43.951Z,999.19
2018-03-28T00:30:36.859Z,999.18
2018-03-28T00:31:36.851Z,999.13
2018-03-28T00:33:29.796Z,999.13
2018-03-28T00:34:29.758Z,999.12
2018-03-28T00:36:22.665Z,999.07
2018-03-28T00:37:22.711Z,999.06
2018-03-28T00:39:15.611Z,999.01
2018-03-28T00:40:15.614Z,999.00
2018-03-28T00:42:08.497Z,998.98
2018-03-28T00:43:08.528Z,998.98
2018-03-28T00:45:01.475Z,998.97
2018-03-28T00:46:01.420Z,998.94
2018-03-28T00:47:54.337Z,998.94
2018-03-28T00:48:54.364Z,998.97
2018-03-28T00:50:47.312Z,998.96
2018-03-28T00:51:47.297Z,998.97
2018-03-28T00:53:40.258Z,998.94
2018-03-28T00:54:40.199Z,998.96
2018-03-28T00:56:33.117Z,998.94
2018-03-28T00:57:33.139Z,998.96
2018-03-28T00:59:26.071Z,998.96
2018-03-28T01:00:26.046Z,998.95
2018-03-28T01:02:18.933Z,998.92
2018-03-28T01:03:18.969Z,998.92
2018-03-28T01:05:11.920Z,998.93
2018-03-28T01:06:11.883Z,998.94
2018-03-28T01:08:04.761Z,998.90
2018-03-28T01:09:04.792Z,998.89
2018-03-28T01:10:58.239Z,998.87
2018-03-28T01:11:57.691Z,998.85
2018-03-28T01:13:50.694Z,998.90
2018-03-28T01:14:50.655Z,998.91
2018-03-28T01:16:43.543Z,998.88
2018-03-28T01:17:43.586Z,998.89
2018-03-28T01:19:36.538Z,998.91
2018-03-28T01:20:36.459Z,998.93
2018-03-28T01:22:30.448Z,998.83
2018-03-28T01:23:29.567Z,998.84
2018-03-28T01:25:22.555Z,998.82
2018-03-28T01:26:22.489Z,998.86
2018-03-28T01:28:15.386Z,998.86
2018-03-28T01:29:15.418Z,998.83
2018-03-28T01:31:08.336Z,998.83
2018-03-28T01:32:08.327Z,998.86
2018-03-28T01:34:01.244Z,998.79
2018-03-28T01:35:01.265Z,998.80
2018-03-28T01:36:54.211Z,998.80
2018-03-28T01:37:54.197Z,998.76
2018-03-28T01:39:47.078Z,998.83
2018-03-28T01:40:47.083Z,998.81
2018-03-28T01:42:39.973Z,998.81
2018-03-28T01:43:40.014Z,998.81
2018-03-28T01:45:32.904Z,998.79
2018-03-28T01:46:32.931Z,998.84
2018-03-28T01:48:25.821Z,998.79
2018-03-28T01:49:25.862Z,998.83
2018-03-28T01:51:19.290Z,998.77
2018-03-28T01:52:18.775Z,998.77
2018-03-28T01:54:11.756Z,998.79
2018-03-28T01:55:12.218Z,998.79
2018-03-28T01:57:04.644Z,998.77
2018-03-28T01:58:04.601Z,998.79
2018-03-28T01:59:57.528Z,998.77
2018-03-28T02:00:57.534Z,998.74
2018-03-28T02:02:50.408Z,998.78
2018-03-28T02:03:50.427Z,998.73
2018-03-28T02:05:44.843Z,998.74
2018-03-28T02:06:44.843Z,998.71
2018-03-28T02:08:37.749Z,998.73
2018-03-28T02:09:37.781Z,998.72
2018-03-28T02:11:30.701Z,998.74
2018-03-28T02:12:30.695Z,998.69
2018-03-28T02:14:23.640Z,998.69
2018-03-28T02:15:23.610Z,998.68
2018-03-28T02:17:16.488Z,998.68
2018-03-28T02:18:16.484Z,998.67
2018-03-28T02:20:09.403Z,998.66
2018-03-28T02:21:09.403Z,998.68
2018-03-28T02:23:02.305Z,998.69
2018-03-28T02:24:02.323Z,998.65
2018-03-28T02:25:55.244Z,998.65
2018-03-28T02:26:55.252Z,998.68
2018-03-28T02:28:48.143Z,998.64
2018-03-28T02:29:48.163Z,998.66
2018-03-28T02:31:41.083Z,998.63
2018-03-28T02:32:41.083Z,998.64
2018-03-28T02:34:33.983Z,998.59
2018-03-28T02:35:34.041Z,998.62
2018-03-28T02:37:27.092Z,998.64
2018-03-28T02:38:27.095Z,998.65
2018-03-28T02:40:20.011Z,998.62
2018-03-28T02:41:20.022Z,998.64
2018-03-28T02:43:13.913Z,998.64
2018-03-28T02:44:13.926Z,998.64
2018-03-28T02:46:06.848Z,998.58
2018-03-28T02:47:06.847Z,998.60
2018-03-28T02:48:59.758Z,998.59
2018-03-28T02:49:59.766Z,998.53
2018-03-28T02:51:52.689Z,998.51
2018-03-28T02:52:52.686Z,998.54
2018-03-28T02:54:45.589Z,998.50
2018-03-28T02:55:45.613Z,998.52
2018-03-28T02:57:38.537Z,998.46
2018-03-28T02:58:38.527Z,998.51
2018-03-28T03:00:31.448Z,998.45
2018-03-28T03:01:31.447Z,998.45
2018-03-28T03:03:24.348Z,998.47
2018-03-28T03:04:24.367Z,998.46
2018-03-28T03:06:17.292Z,998.48
2018-03-28T03:07:17.289Z,998.47
2018-03-28T03:09:10.191Z,998.45
2018-03-28T03:10:10.207Z,998.44
2018-03-28T03:12:03.128Z,998.38
2018-03-28T03:13:03.125Z,998.37
2018-03-28T03:14:56.033Z,998.38
2018-03-28T03:15:56.064Z,998.40
2018-03-28T03:17:48.974Z,998.41
2018-03-28T03:18:48.971Z,998.47
2018-03-28T03:20:41.894Z,998.44
2018-03-28T03:21:41.893Z,998.45
2018-03-28T03:23:34.799Z,998.44
2018-03-28T03:24:34.812Z,998.42
2018-03-28T03:26:27.761Z,998.46
2018-03-28T03:27:27.733Z,998.45
2018-03-28T03:29:20.636Z,998.49
2018-03-28T03:30:20.654Z,998.44
2018-03-28T03:32:13.571Z,998.47
2018-03-28T03:33:13.571Z,998.44
2018-03-28T03:35:06.475Z,998.46
2018-03-28T03:36:06.494Z,998.48
2018-03-28T03:37:59.413Z,998.44
2018-03-28T03:38:59.466Z,998.43
2018-03-28T03:40:52.329Z,998.39
2018-03-28T03:41:52.330Z,998.38
2018-03-28T03:43:45.229Z,998.37
2018-03-28T03:44:45.248Z,998.41
2018-03-28T03:46:38.223Z,998.41
2018-03-28T03:47:38.173Z,998.42
2018-03-28T03:49:31.074Z,998.41
2018-03-28T03:50:31.088Z,998.40
2018-03-28T03:52:24.010Z,998.42
2018-03-28T03:53:24.011Z,998.41
2018-03-28T03:55:16.910Z,998.47
2018-03-28T03:56:16.927Z,998.46
2018-03-28T03:58:09.851Z,998.45
2018-03-28T03:59:09.846Z,998.42
2018-03-28T04:01:02.769Z,998.41
2018-03-28T04:02:02.768Z,998.44
2018-03-28T04:03:55.674Z,998.41
2018-03-28T04:04:55.687Z,998.37
2018-03-28T04:06:48.610Z,998.37
2018-03-28T04:07:48.609Z,998.39
2018-03-28T04:09:41.509Z,998.40
2018-03-28T04:10:41.527Z,998.42
2018-03-28T04:12:34.445Z,998.36
2018-03-28T04:13:34.444Z,998.39
2018-03-28T04:15:27.351Z,998.42
2018-03-28T04:16:27.370Z,998.41
2018-03-28T04:18:20.294Z,998.45
2018-03-28T04:19:20.292Z,998.45
2018-03-28T04:21:13.216Z,998.45
2018-03-28T04:22:13.214Z,998.43
2018-03-28T04:24:06.116Z,998.45
2018-03-28T04:25:06.134Z,998.43
2018-03-28T04:26:59.058Z,998.43
2018-03-28T04:27:59.057Z,998.42
2018-03-28T04:29:51.968Z,998.43
2018-03-28T04:30:51.984Z,998.41
2018-03-28T04:32:44.904Z,998.40
2018-03-28T04:33:44.906Z,998.38
2018-03-28T04:35:37.804Z,998.35
2018-03-28T04:36:37.837Z,998.31
2018-03-28T04:38:30.742Z,998.32
2018-03-28T04:39:30.738Z,998.32
2018-03-28T04:41:23.659Z,998.32
2018-03-28T04:42:23.657Z,998.32
2018-03-28T04:44:16.561Z,998.32
2018-03-28T04:45:16.580Z,998.31
2018-03-28T04:47:09.496Z,998.33
2018-03-28T04:48:09.494Z,998.31
2018-03-28T04:50:02.393Z,998.41
2018-03-28T04:51:02.412Z,998.43
2018-03-28T04:52:55.330Z,998.45
2018-03-28T04:53:55.328Z,998.43
2018-03-28T04:55:48.310Z,998.43
2018-03-28T04:56:48.299Z,998.41
2018-03-28T04:58:41.217Z,998.39
2018-03-28T04:59:41.231Z,998.39
2018-03-28T05:01:34.162Z,998.36
2018-03-28T05:02:34.137Z,998.37
2018-03-28T05:04:27.034Z,998.32
2018-03-28T05:05:27.053Z,998.28
2018-03-28T05:07:19.973Z,998.31
2018-03-28T05:08:19.971Z,998.29
2018-03-28T05:10:12.878Z,998.26
2018-03-28T05:11:12.888Z,998.26
2018-03-28T05:13:05.817Z,998.25
2018-03-28T05:14:05.811Z,998.26
2018-03-28T05:15:58.710Z,998.28
2018-03-28T05:16:58.729Z,998.27
2018-03-28T05:18:51.649Z,998.30
2018-03-28T05:19:51.648Z,998.35
2018-03-28T05:21:44.578Z,998.33
2018-03-28T05:22:44.579Z,998.32
2018-03-28T05:24:37.474Z,998.30
2018-03-28T05:25:37.494Z,998.34
2018-03-28T05:27:30.427Z,998.34
2018-03-28T05:28:30.459Z,998.35
2018-03-28T05:30:23.313Z,998.36
2018-03-28T05:31:23.332Z,998.35
2018-03-28T05:33:16.444Z,998.34
2018-03-28T05:34:16.446Z,998.35
2018-03-28T05:36:09.348Z,998.36
2018-03-28T05:37:09.361Z,998.36
2018-03-28T05:39:02.295Z,998.38
2018-03-28T05:40:02.286Z,998.40
2018-03-28T05:41:55.205Z,998.36
2018-03-28T05:42:55.202Z,998.40
2018-03-28T05:44:48.108Z,998.41
2018-03-28T05:45:48.124Z,998.43
2018-03-28T05:47:41.047Z,998.42
2018-03-28T05:48:41.043Z,998.44
2018-03-28T05:50:33.951Z,998.42
2018-03-28T05:51:34.040Z,998.46
2018-03-28T05:53:26.886Z,998.46
2018-03-28T05:54:26.888Z,998.44
2018-03-28T05:56:19.786Z,998.45
2018-03-28T05:57:19.804Z,998.42
2018-03-28T05:59:12.726Z,998.47
2018-03-28T06:00:12.724Z,998.45
2018-03-28T06:02:05.641Z,998.47
2018-03-28T06:03:05.642Z,998.45
2018-03-28T06:04:58.548Z,998.44
2018-03-28T06:05:58.563Z,998.44
2018-03-28T06:07:51.481Z,998.44
2018-03-28T06:08:51.479Z,998.45
2018-03-28T06:10:44.381Z,998.46
2018-03-28T06:11:44.398Z,998.49
2018-03-28T06:13:37.324Z,998.52
2018-03-28T06:14:37.321Z,998.51
2018-03-28T06:16:30.222Z,998.51
2018-03-28T06:17:30.240Z,998.50
2018-03-28T06:19:23.161Z,998.48
2018-03-28T06:20:23.160Z,998.49
2018-03-28T06:22:16.086Z,998.43
2018-03-28T06:23:16.087Z,998.43
2018-03-28T06:25:08.988Z,998.46
2018-03-28T06:26:09.006Z,998.44
2018-03-28T06:28:01.927Z,998.37
2018-03-28T06:29:01.928Z,998.38
2018-03-28T06:30:54.830Z,998.44
2018-03-28T06:31:54.851Z,998.42
2018-03-28T06:33:47.769Z,998.44
2018-03-28T06:34:47.770Z,998.44
2018-03-28T06:36:40.674Z,998.40
2018-03-28T06:37:40.687Z,998.44
2018-03-28T06:39:33.605Z,998.38
2018-03-28T06:40:33.604Z,998.36
2018-03-28T06:42:26.524Z,998.40
2018-03-28T06:43:26.523Z,998.36
2018-03-28T06:45:19.427Z,998.41
2018-03-28T06:46:19.446Z,998.35
2018-03-28T06:48:12.363Z,998.34
2018-03-28T06:49:12.364Z,998.32
2018-03-28T06:51:05.473Z,998.31
2018-03-28T06:52:05.490Z,998.31
2018-03-28T06:53:58.577Z,998.26
2018-03-28T06:54:58.586Z,998.26
2018-03-28T06:56:51.482Z,998.30
2018-03-28T06:57:51.500Z,998.31
2018-03-28T06:59:44.450Z,998.32
2018-03-28T07:00:44.417Z,998.29
2018-03-28T07:02:37.342Z,998.28
2018-03-28T07:03:37.342Z,998.28
2018-03-28T07:05:30.241Z,998.27
2018-03-28T07:06:30.260Z,998.28
2018-03-28T07:08:23.186Z,998.29
2018-03-28T07:09:23.182Z,998.26
2018-03-28T07:11:16.082Z,998.27
2018-03-28T07:12:16.099Z,998.26
2018-03-28T07:14:09.021Z,998.28
2018-03-28T07:15:09.019Z,998.30
2018-03-28T07:17:01.931Z,998.29
2018-03-28T07:18:01.987Z,998.30
2018-03-28T07:19:54.860Z,998.28
2018-03-28T07:20:54.860Z,998.24
2018-03-28T07:22:47.779Z,998.20
2018-03-28T07:23:47.780Z,998.18
2018-03-28T07:25:40.684Z,998.15
2018-03-28T07:26:40.702Z,998.14
2018-03-28T07:28:33.622Z,998.14
2018-03-28T07:29:33.621Z,998.17
2018-03-28T07:31:26.521Z,998.20
2018-03-28T07:32:26.541Z,998.18
2018-03-28T07:34:19.465Z,998.21
2018-03-28T07:35:19.457Z,998.24
2018-03-28T07:37:12.362Z,998.22
2018-03-28T07:38:12.380Z,998.24
2018-03-28T07:40:05.300Z,998.20
2018-03-28T07:41:05.298Z,998.19
2018-03-28T07:42:58.221Z,998.26
2018-03-28T07:43:58.220Z,998.26
2018-03-28T07:45:51.123Z,998.22
2018-03-28T07:46:51.140Z,998.23
2018-03-28T07:48:44.059Z,998.18
2018-03-28T07:49:44.058Z,998.17
2018-03-28T07:51:36.969Z,998.17
2018-03-28T07:52:36.980Z,998.19
2018-03-28T07:54:29.900Z,998.18
2018-03-28T07:55:29.899Z,998.19
2018-03-28T07:57:22.803Z,998.21
2018-03-28T07:58:22.819Z,998.22
2018-03-28T08:00:15.749Z,998.21
2018-03-28T08:01:15.740Z,998.18
2018-03-28T08:03:08.664Z,998.20
2018-03-28T08:04:08.667Z,998.23
2018-03-28T08:06:01.565Z,998.21
2018-03-28T08:07:01.590Z,998.28
2018-03-28T08:08:54.510Z,998.24
2018-03-28T08:09:54.502Z,998.18
2018-03-28T08:11:47.407Z,998.16
2018-03-28T08:12:47.426Z,998.18
2018-03-28T08:14:40.346Z,998.15
2018-03-28T08:15:40.347Z,998.19
2018-03-28T08:17:33.246Z,998.13
2018-03-28T08:18:33.264Z,998.15
2018-03-28T08:20:26.187Z,998.20
2018-03-28T08:21:26.186Z,998.21
2018-03-28T08:23:19.106Z,998.22
2018-03-28T08:24:19.106Z,998.21
2018-03-28T08:26:12.009Z,998.19
2018-03-28T08:27:12.028Z,998.19
2018-03-28T08:29:04.947Z,998.16
2018-03-28T08:30:04.947Z,998.17
2018-03-28T08:31:57.851Z,998.13
2018-03-28T08:32:57.869Z,998.13
2018-03-28T08:34:50.789Z,998.09
2018-03-28T08:35:50.792Z,998.07
2018-03-28T08:37:43.693Z,998.05
2018-03-28T08:38:43.714Z,998.02
2018-03-28T08:40:36.635Z,998.02
2018-03-28T08:41:36.636Z,998.05
2018-03-28T08:43:29.578Z,998.08
2018-03-28T08:44:29.555Z,998.11
2018-03-28T08:46:22.469Z,998.12
2018-03-28T08:47:22.495Z,998.10
2018-03-28T08:49:15.420Z,998.13
2018-03-28T08:50:15.417Z,998.07
2018-03-28T08:52:08.326Z,998.08
2018-03-28T08:53:08.335Z,998.04
2018-03-28T08:55:01.258Z,998.09
2018-03-28T08:56:01.267Z,998.10
2018-03-28T08:57:54.162Z,998.10
2018-03-28T08:58:54.183Z,998.10
2018-03-28T09:00:47.103Z,998.06
2018-03-28T09:01:47.110Z,998.04
2018-03-28T09:03:40.028Z,998.03
2018-03-28T09:04:40.026Z,997.98
2018-03-28T09:06:32.928Z,997.98
2018-03-28T09:07:32.948Z,997.99
2018-03-28T09:09:25.879Z,997.91
2018-03-28T09:10:25.871Z,997.90
2018-03-28T09:12:18.777Z,997.90
2018-03-28T09:13:18.796Z,997.90
2018-03-28T09:15:11.720Z,997.99
2018-03-28T09:16:11.723Z,997.98
2018-03-28T09:18:04.632Z,997.95
2018-03-28T09:19:04.659Z,997.93
2018-03-28T09:20:57.580Z,997.89
2018-03-28T09:21:57.578Z,997.90
2018-03-28T09:23:50.502Z,997.91
2018-03-28T09:24:50.502Z,997.87
2018-03-28T09:26:43.407Z,997.84
2018-03-28T09:27:43.427Z,997.81
2018-03-28T09:29:36.361Z,997.84
2018-03-28T09:30:36.352Z,997.85
2018-03-28T09:32:29.280Z,997.86
2018-03-28T09:33:29.299Z,997.84
2018-03-28T09:35:22.231Z,997.84
2018-03-28T09:36:22.228Z,997.84
2018-03-28T09:38:15.139Z,997.80
2018-03-28T09:39:15.157Z,997.84
2018-03-28T09:41:08.098Z,997.80
2018-03-28T09:42:08.100Z,997.76
2018-03-28T09:44:01.085Z,997.76
2018-03-28T09:45:01.031Z,997.80
2018-03-28T09:46:53.937Z,997.78
2018-03-28T09:47:53.959Z,997.74
2018-03-28T09:49:46.886Z,997.72
2018-03-28T09:50:46.886Z,997.71
2018-03-28T09:52:39.806Z,997.71
2018-03-28T09:53:39.813Z,997.67
2018-03-28T09:55:32.744Z,997.65
2018-03-28T09:56:32.750Z,997.65
2018-03-28T09:58:25.661Z,997.68
2018-03-28T09:59:25.681Z,997.68
2018-03-28T10:01:18.678Z,997.72
2018-03-28T10:02:18.612Z,997.71
2018-03-28T10:04:11.539Z,997.67
2018-03-28T10:05:11.540Z,997.67
2018-03-28T10:07:04.450Z,997.63
2018-03-28T10:08:04.472Z,997.62
2018-03-28T10:09:57.410Z,997.64
2018-03-28T10:10:57.400Z,997.63
2018-03-28T10:12:50.305Z,997.67
2018-03-28T10:13:50.327Z,997.66
2018-03-28T10:15:43.260Z,997.64
2018-03-28T10:16:43.258Z,997.59
2018-03-28T10:18:36.169Z,997.57
2018-03-28T10:19:36.191Z,997.59
2018-03-28T10:21:29.123Z,997.58
2018-03-28T10:22:29.128Z,997.56
2018-03-28T10:24:22.058Z,997.54
2018-03-28T10:25:22.062Z,997.54
2018-03-28T10:27:14.972Z,997.55
2018-03-28T10:28:14.998Z,997.53
2018-03-28T10:30:07.924Z,997.53
2018-03-28T10:31:07.927Z,997.52
2018-03-28T10:33:00.841Z,997.51
2018-03-28T10:34:00.870Z,997.50
2018-03-28T10:35:53.797Z,997.41
2018-03-28T10:36:53.796Z,997.45
2018-03-28T10:38:46.702Z,997.41
2018-03-28T10:39:46.728Z,997.43
2018-03-28T10:41:39.659Z,997.43
2018-03-28T10:42:39.658Z,997.43
2018-03-28T10:44:32.589Z,997.40
2018-03-28T10:45:32.591Z,997.42
2018-03-28T10:47:25.551Z,997.38
2018-03-28T10:48:25.526Z,997.36
2018-03-28T10:50:18.455Z,997.35
2018-03-28T10:51:18.458Z,997.36
2018-03-28T10:53:11.368Z,997.32
2018-03-28T10:54:11.391Z,997.35
2018-03-28T10:56:04.318Z,997.34
2018-03-28T10:57:04.323Z,997.33
2018-03-28T10:58:57.238Z,997.35
2018-03-28T10:59:57.261Z,997.37
2018-03-28T11:01:50.193Z,997.36
2018-03-28T11:02:50.194Z,997.31
2018-03-28T11:04:43.132Z,997.23
2018-03-28T11:05:43.144Z,997.29
2018-03-28T11:07:36.047Z,997.25
2018-03-28T11:08:36.071Z,997.17
2018-03-28T11:10:29.008Z,997.21
2018-03-28T11:11:29.014Z,997.15
2018-03-28T11:13:21.929Z,997.14
2018-03-28T11:14:21.944Z,997.15
2018-03-28T11:16:15.041Z,997.15
2018-03-28T11:17:15.045Z,997.13
2018-03-28T11:19:07.960Z,997.10
2018-03-28T11:20:07.988Z,997.04
2018-03-28T11:22:00.916Z,997.03
2018-03-28T11:23:00.914Z,997.05
2018-03-28T11:24:54.010Z,996.97
2018-03-28T11:25:54.059Z,997.00
2018-03-28T11:27:46.924Z,996.96
2018-03-28T11:28:46.946Z,996.96
2018-03-28T11:30:39.880Z,996.97
2018-03-28T11:31:39.880Z,996.92
2018-03-28T11:33:32.789Z,996.90
2018-03-28T11:34:32.810Z,996.89
2018-03-28T11:36:25.761Z,996.87
2018-03-28T11:37:25.751Z,996.84
2018-03-28T11:39:18.657Z,996.80
2018-03-28T11:40:18.681Z,996.77
2018-03-28T11:42:11.607Z,996.73
2018-03-28T11:43:11.611Z,996.67
2018-03-28T11:45:04.537Z,996.65
2018-03-28T11:46:04.542Z,996.61
2018-03-28T11:47:57.452Z,996.59
2018-03-28T11:48:57.474Z,996.60
2018-03-28T11:50:50.406Z,996.61
2018-03-28T11:51:50.412Z,996.55
2018-03-28T11:53:43.322Z,996.52
2018-03-28T11:54:43.344Z,996.52
2018-03-28T11:56:36.272Z,996.51
2018-03-28T11:57:36.275Z,996.45
2018-03-28T11:59:29.189Z,996.45
2018-03-28T12:00:29.210Z,996.44
2018-03-28T12:02:22.142Z,996.37
2018-03-28T12:03:22.144Z,996.39
2018-03-28T12:05:15.082Z,996.38
2018-03-28T12:06:15.080Z,996.35
2018-03-28T12:08:07.991Z,996.28
2018-03-28T12:09:08.087Z,996.27
2018-03-28T12:11:00.951Z,996.21
2018-03-28T12:12:00.958Z,996.21
2018-03-28T12:13:53.863Z,996.24
2018-03-28T12:14:53.888Z,996.23
2018-03-28T12:16:46.823Z,996.23
2018-03-28T12:17:46.822Z,996.19
2018-03-28T12:19:39.731Z,996.14
2018-03-28T12:20:39.757Z,996.20
2018-03-28T12:22:32.698Z,996.19
2018-03-28T12:23:32.704Z,996.18
2018-03-28T12:25:25.630Z,996.17
2018-03-28T12:26:25.633Z,996.11
2018-03-28T12:28:18.870Z,996.04
2018-03-28T12:29:18.580Z,996.04
2018-03-28T12:31:11.508Z,996.04
2018-03-28T12:32:11.513Z,995.99
2018-03-28T12:34:04.428Z,995.95
2018-03-28T12:35:04.450Z,995.95
2018-03-28T12:36:57.381Z,995.91
2018-03-28T12:37:57.381Z,995.88
2018-03-28T12:39:50.299Z,995.79
2018-03-28T12:40:50.320Z,995.79
2018-03-28T12:42:43.252Z,995.78
2018-03-28T12:43:43.252Z,995.72
2018-03-28T12:45:36.193Z,995.71
2018-03-28T12:46:36.185Z,995.71
2018-03-28T12:48:29.093Z,995.66
2018-03-28T12:49:29.113Z,995.66
2018-03-28T12:51:22.044Z,995.55
2018-03-28T12:52:22.144Z,995.48
2018-03-28T12:54:14.957Z,995.43
2018-03-28T12:55:14.985Z,995.44
2018-03-28T12:57:07.912Z,995.36
2018-03-28T12:58:07.950Z,995.37
2018-03-28T13:00:00.888Z,995.34
2018-03-28T13:01:00.940Z,995.29
2018-03-28T13:02:53.775Z,995.28
2018-03-28T13:03:53.779Z,995.26
2018-03-28T13:05:46.711Z,995.20
2018-03-28T13:06:46.714Z,995.22
2018-03-28T13:08:39.624Z,995.20
2018-03-28T13:09:39.644Z,995.20
2018-03-28T13:11:32.571Z,995.14
2018-03-28T13:12:32.575Z,995.09
2018-03-28T13:14:25.501Z,995.07
2018-03-28T13:15:25.510Z,995.00
2018-03-28T13:17:18.516Z,994.95
2018-03-28T13:18:18.477Z,994.93
2018-03-28T13:20:11.385Z,994.92
2018-03-28T13:21:11.408Z,994.92
2018-03-28T13:23:04.337Z,994.85
2018-03-28T13:24:04.340Z,994.87
2018-03-28T13:25:57.284Z,994.85
2018-03-28T13:26:57.280Z,994.79
2018-03-28T13:28:50.221Z,994.78
2018-03-28T13:29:50.209Z,994.77
2018-03-28T13:31:43.136Z,994.69
2018-03-28T13:32:43.231Z,994.63
2018-03-28T13:34:36.068Z,994.61
2018-03-28T13:35:36.091Z,994.57
2018-03-28T13:37:29.021Z,994.57
2018-03-28T13:38:29.021Z,994.57
2018-03-28T13:40:21.929Z,994.54
2018-03-28T13:41:21.950Z,994.56
2018-03-28T13:43:14.878Z,994.57
2018-03-28T13:44:14.879Z,994.57
2018-03-28T13:46:07.806Z,994.48
2018-03-28T13:47:07.813Z,994.46
2018-03-28T13:49:00.712Z,994.38
2018-03-28T13:50:00.733Z,994.36
2018-03-28T13:51:54.352Z,994.35
2018-03-28T13:52:54.366Z,994.34
2018-03-28T13:54:47.247Z,994.26
2018-03-28T13:55:47.273Z,994.21
2018-03-28T13:57:40.197Z,994.18
2018-03-28T13:58:40.194Z,994.14
2018-03-28T14:00:33.104Z,994.10
2018-03-28T14:01:33.124Z,994.10
2018-03-28T14:03:26.050Z,994.02
2018-03-28T14:04:26.050Z,994.01
2018-03-28T14:06:18.973Z,993.96
2018-03-28T14:07:18.974Z,993.92
2018-03-28T14:09:11.882Z,993.90
2018-03-28T14:10:11.901Z,993.86
2018-03-28T14:12:04.831Z,993.81
2018-03-28T14:13:04.828Z,993.80
2018-03-28T14:14:57.733Z,993.74
2018-03-28T14:15:57.752Z,993.74
2018-03-28T14:17:50.682Z,993.68
2018-03-28T14:18:50.684Z,993.65
2018-03-28T14:20:43.591Z,993.67
2018-03-28T14:21:43.663Z,993.68
2018-03-28T14:23:36.534Z,993.63
2018-03-28T14:24:36.533Z,993.62
2018-03-28T14:26:29.456Z,993.59
2018-03-28T14:27:29.456Z,993.56
2018-03-28T14:29:23.214Z,993.48
2018-03-28T14:30:23.233Z,993.47
2018-03-28T14:32:16.152Z,993.43
2018-03-28T14:33:16.194Z,993.34
2018-03-28T14:35:09.056Z,993.35
2018-03-28T14:36:09.078Z,993.31
2018-03-28T14:38:02.007Z,993.28
2018-03-28T14:39:02.005Z,993.24
2018-03-28T14:40:54.911Z,993.24
2018-03-28T14:41:54.931Z,993.21
2018-03-28T14:43:48.360Z,993.18
2018-03-28T14:44:48.360Z,993.20
2018-03-28T14:46:41.283Z,993.12
2018-03-28T14:47:41.283Z,993.14
2018-03-28T14:49:34.191Z,993.10
2018-03-28T14:50:34.213Z,993.09
2018-03-28T14:52:27.141Z,993.04
2018-03-28T14:53:27.137Z,993.07
2018-03-28T14:55:20.042Z,993.01
2018-03-28T14:56:20.065Z,993.05
2018-03-28T14:58:12.985Z,993.01
2018-03-28T14:59:13.024Z,992.99
2018-03-28T15:01:05.895Z,992.98
2018-03-28T15:02:05.912Z,992.99
2018-03-28T15:03:58.877Z,992.95
2018-03-28T15:04:58.841Z,992.91
2018-03-28T15:06:51.899Z,992.84
2018-03-28T15:07:51.767Z,992.85
2018-03-28T15:09:44.676Z,992.78
2018-03-28T15:10:44.689Z,992.78
2018-03-28T15:12:37.607Z,992.78
2018-03-28T15:13:37.607Z,992.76
2018-03-28T15:15:30.511Z,992.74
2018-03-28T15:16:30.530Z,992.74
2018-03-28T15:18:23.469Z,992.67
2018-03-28T15:19:23.456Z,992.63
2018-03-28T15:21:16.358Z,992.58
2018-03-28T15:22:16.377Z,992.53
2018-03-28T15:24:09.301Z,992.50
2018-03-28T15:25:09.303Z,992.40
2018-03-28T15:27:02.224Z,992.32
2018-03-28T15:28:02.224Z,992.26
2018-03-28T15:29:55.129Z,992.24
2018-03-28T15:30:55.146Z,992.20
2018-03-28T15:32:48.068Z,992.12
2018-03-28T15:33:48.068Z,992.15
2018-03-28T15:35:40.976Z,992.08
2018-03-28T15:36:41.004Z,992.05
2018-03-28T15:38:33.928Z,992.03
2018-03-28T15:39:33.926Z,992.00
2018-03-28T15:41:26.831Z,991.99
2018-03-28T15:42:26.850Z,991.97
2018-03-28T15:44:19.776Z,991.98
2018-03-28T15:45:19.777Z,991.93
2018-03-28T15:47:12.702Z,991.91
2018-03-28T15:48:12.701Z,991.88
2018-03-28T15:50:05.613Z,991.86
2018-03-28T15:51:05.634Z,991.80
2018-03-28T15:52:58.561Z,991.78
2018-03-28T15:53:58.562Z,991.78
2018-03-28T15:55:51.495Z,991.76
2018-03-28T15:56:51.514Z,991.72
2018-03-28T15:58:44.434Z,991.73
2018-03-28T15:59:44.436Z,991.72
2018-03-28T16:01:37.338Z,991.65
2018-03-28T16:02:37.361Z,991.64
2018-03-28T16:04:30.287Z,991.63
2018-03-28T16:05:30.285Z,991.53
2018-03-28T16:07:23.212Z,991.53
2018-03-28T16:08:23.213Z,991.51
2018-03-28T16:10:16.116Z,991.56
2018-03-28T16:11:16.134Z,991.56
2018-03-28T16:13:09.062Z,991.66
2018-03-28T16:14:09.115Z,991.65
2018-03-28T16:16:01.979Z,991.74
2018-03-28T16:17:02.010Z,991.72
2018-03-28T16:18:54.903Z,991.56
2018-03-28T16:19:54.905Z,991.55
2018-03-28T16:21:47.808Z,991.59
2018-03-28T16:22:47.827Z,991.55
2018-03-28T16:24:40.747Z,991.48
2018-03-28T16:25:40.748Z,991.40
2018-03-28T16:27:33.669Z,991.29
2018-03-28T16:28:33.670Z,991.28
2018-03-28T16:30:26.590Z,991.28
2018-03-28T16:31:26.594Z,991.21
2018-03-28T16:33:20.017Z,991.07
2018-03-28T16:34:20.015Z,990.98
2018-03-28T16:36:12.956Z,990.97
2018-03-28T16:37:12.947Z,991.08
2018-03-28T16:39:05.913Z,991.16
2018-03-28T16:40:05.886Z,991.17
2018-03-28T16:41:58.775Z,991.14
2018-03-28T16:42:59.851Z,991.10
2018-03-28T16:44:51.736Z,991.09
2018-03-28T16:45:51.714Z,991.02
2018-03-28T16:47:44.619Z,990.90
2018-03-28T16:48:44.649Z,990.83
2018-03-28T16:50:37.564Z,990.71
2018-03-28T16:51:37.562Z,990.64
2018-03-28T16:53:30.468Z,990.60
2018-03-28T16:54:30.493Z,990.61
2018-03-28T16:56:23.409Z,990.67
2018-03-28T16:57:23.413Z,990.69
2018-03-28T16:59:16.331Z,990.72
2018-03-28T17:00:16.330Z,990.72
2018-03-28T17:02:09.234Z,990.74
2018-03-28T17:03:09.254Z,990.72
2018-03-28T17:05:02.217Z,990.63
2018-03-28T17:06:02.192Z,990.61
2018-03-28T17:07:55.143Z,990.56
2018-03-28T17:08:55.113Z,990.58
2018-03-28T17:10:48.038Z,990.58
2018-03-28T17:11:48.034Z,990.57
2018-03-28T17:13:40.935Z,990.49
2018-03-28T17:14:40.954Z,990.47
2018-03-28T17:16:33.876Z,990.47
2018-03-28T17:17:33.876Z,990.45
2018-03-28T17:19:26.798Z,990.41
2018-03-28T17:20:26.797Z,990.38
2018-03-28T17:22:19.722Z,990.43
2018-03-28T17:23:19.719Z,990.41
2018-03-28T17:25:12.622Z,990.36
2018-03-28T17:26:12.635Z,990.39
2018-03-28T17:28:05.573Z,990.38
2018-03-28T17:29:05.562Z,990.36
2018-03-28T17:30:58.503Z,990.36
2018-03-28T17:31:58.631Z,990.35
2018-03-28T17:33:51.384Z,990.32
2018-03-28T17:34:51.404Z,990.22
2018-03-28T17:36:44.354Z,990.16
2018-03-28T17:37:44.357Z,990.11
2018-03-28T17:39:37.259Z,990.03
2018-03-28T17:40:37.278Z,989.97
2018-03-28T17:42:30.202Z,989.95
2018-03-28T17:43:30.202Z,989.89
2018-03-28T17:45:23.117Z,989.81
2018-03-28T17:46:23.120Z,989.78
2018-03-28T17:48:16.042Z,989.72
2018-03-28T17:49:16.043Z,989.74
2018-03-28T17:51:08.966Z,989.69
2018-03-28T17:52:09.006Z,989.68
2018-03-28T17:54:01.908Z,989.64
2018-03-28T17:55:01.910Z,989.59
2018-03-28T17:56:54.871Z,989.58
2018-03-28T17:57:54.845Z,989.61
2018-03-28T17:59:47.746Z,989.61